Time;durP1;ratioP1;P1;durP2;ratioP2;P2;SDS_P1;SDS_P2;PMS_P1;PMS_P2;Temp;Humidity;BMP_temperature;BMP_pressure;BME280_temperature;BME280_humidity;BME280_pressure;Samples;Min_cycle;Max_cycle;Signal;HPM_P1;HPM_P2
2023/12/02 00:01:11;;;;;;;43.70;20.88;;;-2.10;78.90;;;;;;5016767;28;20521;-85
2023/12/02 00:03:55;;;;;;;50.10;21.33;;;-2.00;78.90;;;;;;5015659;28;20105;-85
2023/12/02 00:06:39;;;;;;;44.50;21.02;;;-2.00;78.90;;;;;;5015636;28;20713;-86
2023/12/02 00:09:23;;;;;;;42.90;20.90;;;-2.00;78.90;;;;;;5016279;28;20049;-85
2023/12/02 00:12:07;;;;;;;45.50;21.25;;;-2.00;78.80;;;;;;5012574;28;20065;-87
2023/12/02 00:14:52;;;;;;;49.47;22.35;;;-2.00;78.80;;;;;;5008552;28;20072;-86
2023/12/02 00:17:36;;;;;;;47.33;20.42;;;-2.00;78.80;;;;;;5000696;28;20481;-86
2023/12/02 00:20:20;;;;;;;45.20;22.27;;;-2.00;78.80;;;;;;5010330;28;20040;-86
2023/12/02 00:23:04;;;;;;;47.35;21.70;;;-2.00;78.90;;;;;;4999007;28;20923;-86
2023/12/02 00:25:48;;;;;;;45.80;21.67;;;-2.00;78.90;;;;;;5000097;28;20048;-86
2023/12/02 00:28:32;;;;;;;46.60;22.75;;;-2.00;78.90;;;;;;5007286;28;20728;-86
2023/12/02 00:31:16;;;;;;;49.00;21.88;;;-2.00;79.00;;;;;;5010862;28;20092;-86
2023/12/02 00:34:01;;;;;;;52.30;22.38;;;-2.00;78.90;;;;;;5011395;28;20045;-86
2023/12/02 00:36:46;;;;;;;45.50;21.75;;;-2.00;78.90;;;;;;5011883;28;20056;-87
2023/12/02 00:39:30;;;;;;;42.63;19.73;;;-2.00;78.80;;;;;;5010871;28;20037;-87
2023/12/02 00:42:14;;;;;;;48.85;21.42;;;-2.00;78.80;;;;;;5011434;28;20045;-83
2023/12/02 00:44:58;;;;;;;45.95;22.65;;;-2.00;78.80;;;;;;5010281;28;20421;-86
2023/12/02 00:47:43;;;;;;;48.78;21.92;;;-2.00;78.80;;;;;;5011571;28;20045;-85
2023/12/02 00:50:27;;;;;;;53.28;22.85;;;-1.90;78.80;;;;;;5010805;28;20501;-86
2023/12/02 00:53:11;;;;;;;48.20;21.80;;;-2.00;78.80;;;;;;4996315;28;20045;-86
2023/12/02 00:55:55;;;;;;;45.90;21.88;;;-1.90;78.90;;;;;;5010830;28;20104;-85
2023/12/02 00:58:39;;;;;;;49.80;21.77;;;-1.90;78.90;;;;;;5012076;28;20049;-86
2023/12/02 01:01:24;;;;;;;53.13;23.63;;;-1.90;79.00;;;;;;5014703;28;20033;-85
2023/12/02 01:04:08;;;;;;;50.85;22.70;;;-1.90;78.90;;;;;;5014965;28;20099;-86
2023/12/02 01:06:52;;;;;;;47.72;22.63;;;-1.90;78.90;;;;;;5014721;28;20040;-86
2023/12/02 01:09:36;;;;;;;52.63;23.65;;;-1.90;78.90;;;;;;5014185;28;20848;-86
2023/12/02 01:12:20;;;;;;;51.65;24.38;;;-1.90;79.00;;;;;;5014693;28;20045;-85
2023/12/02 01:15:04;;;;;;;50.33;22.83;;;-1.90;79.00;;;;;;5015081;28;20037;-86
2023/12/02 01:17:48;;;;;;;54.65;23.52;;;-1.90;79.00;;;;;;5013848;28;20053;-86
2023/12/02 01:20:32;;;;;;;51.53;23.30;;;-1.90;79.00;;;;;;5001208;28;20048;-86
2023/12/02 01:23:16;;;;;;;46.92;21.05;;;-1.90;79.00;;;;;;5014623;28;20048;-87
2023/12/02 01:26:00;;;;;;;50.25;21.65;;;-1.90;79.20;;;;;;5014713;28;20045;-86
2023/12/02 01:28:44;;;;;;;47.90;22.15;;;-1.90;79.10;;;;;;5014087;28;20065;-87
2023/12/02 01:31:28;;;;;;;54.28;23.00;;;-1.90;79.00;;;;;;5013890;28;20076;-86
2023/12/02 01:34:13;;;;;;;52.05;24.58;;;-1.90;79.00;;;;;;5014379;28;20053;-86
2023/12/02 01:36:57;;;;;;;50.13;22.15;;;-1.90;78.90;;;;;;5013822;28;20108;-86
2023/12/02 01:39:41;;;;;;;57.97;23.70;;;-1.90;78.90;;;;;;5012708;28;20096;-85
2023/12/02 01:42:26;;;;;;;48.80;22.60;;;-1.90;79.10;;;;;;5012509;28;20041;-86
2023/12/02 01:45:10;;;;;;;54.80;23.08;;;-1.90;78.90;;;;;;5014594;28;20060;-86
2023/12/02 01:47:56;;;;;;;53.10;23.05;;;-1.90;78.90;;;;;;5013119;28;20111;-85
2023/12/02 01:50:41;;;;;;;53.47;24.33;;;-1.90;79.00;;;;;;5013379;28;20504;-86
2023/12/02 01:53:25;;;;;;;54.92;23.95;;;-1.90;79.00;;;;;;5012738;28;20048;-86
2023/12/02 01:56:11;;;;;;;53.15;22.35;;;-1.90;79.00;;;;;;5014172;28;20088;-86
2023/12/02 01:58:55;;;;;;;50.35;24.35;;;-1.90;79.00;;;;;;5013936;28;20509;-87
2023/12/02 02:01:40;;;;;;;53.38;24.73;;;-1.90;79.00;;;;;;5012175;28;20117;-87
2023/12/02 02:04:24;;;;;;;47.70;22.48;;;-1.90;79.10;;;;;;5014258;28;20037;-84
2023/12/02 02:07:08;;;;;;;49.08;23.45;;;-1.90;79.10;;;;;;5013619;28;20099;-86
2023/12/02 02:09:52;;;;;;;52.53;23.48;;;-1.90;79.00;;;;;;5013635;28;20053;-86
2023/12/02 02:12:37;;;;;;;50.92;23.27;;;-1.90;79.10;;;;;;5013598;28;20052;-85
2023/12/02 02:15:21;;;;;;;49.83;23.83;;;-1.90;79.00;;;;;;5010502;28;20449;-86
2023/12/02 02:18:05;;;;;;;47.00;23.05;;;-1.90;79.00;;;;;;5009970;28;20107;-87
2023/12/02 02:20:51;;;;;;;53.80;25.10;;;-1.90;79.10;;;;;;5009160;28;20045;-86
2023/12/02 02:23:35;;;;;;;51.17;24.73;;;-1.90;79.10;;;;;;5012792;28;20036;-86
2023/12/02 02:26:20;;;;;;;50.78;25.08;;;-1.90;79.20;;;;;;5013724;28;20137;-87
2023/12/02 02:29:04;;;;;;;48.67;23.58;;;-1.90;79.10;;;;;;5011269;28;20504;-87
2023/12/02 02:31:48;;;;;;;52.63;23.73;;;-1.90;79.10;;;;;;5011795;28;20040;-86
2023/12/02 02:34:32;;;;;;;55.17;23.45;;;-1.90;79.10;;;;;;5012036;28;20548;-86
2023/12/02 02:37:17;;;;;;;52.13;23.30;;;-1.90;79.10;;;;;;4994164;28;20048;-86
2023/12/02 02:40:01;;;;;;;54.50;25.48;;;-1.90;79.00;;;;;;5013189;28;20049;-87
2023/12/02 02:42:45;;;;;;;49.00;22.33;;;-1.90;79.10;;;;;;5012249;28;20036;-86
2023/12/02 02:45:30;;;;;;;54.03;23.50;;;-1.90;79.10;;;;;;5012338;28;20060;-83
2023/12/02 02:48:14;;;;;;;57.42;24.20;;;-1.90;79.20;;;;;;5012066;28;20049;-87
2023/12/02 02:50:58;;;;;;;50.88;23.38;;;-1.90;79.20;;;;;;5011681;28;20044;-86
2023/12/02 02:53:42;;;;;;;52.33;23.02;;;-1.90;79.30;;;;;;5002084;28;20084;-86
2023/12/02 02:56:27;;;;;;;53.10;23.90;;;-1.90;79.20;;;;;;5011770;28;20045;-85
2023/12/02 02:59:11;;;;;;;49.50;22.60;;;-2.00;79.30;;;;;;5012551;28;20036;-86
2023/12/02 03:01:55;;;;;;;53.22;24.10;;;-2.00;79.20;;;;;;5012307;28;20068;-87
2023/12/02 03:04:39;;;;;;;51.10;23.88;;;-2.00;79.20;;;;;;5012093;28;20117;-86
2023/12/02 03:07:23;;;;;;;57.47;22.88;;;-2.00;79.20;;;;;;5012512;28;20053;-86
2023/12/02 03:10:07;;;;;;;56.28;23.27;;;-2.00;79.30;;;;;;5012563;28;20048;-86
2023/12/02 03:12:52;;;;;;;52.55;24.83;;;-2.00;79.40;;;;;;4996903;28;20050;-87
2023/12/02 03:15:35;;;;;;;53.60;22.63;;;-2.00;79.20;;;;;;4992754;28;20080;-86
2023/12/02 03:18:20;;;;;;;52.67;23.80;;;-2.00;79.20;;;;;;4996701;28;20095;-86
2023/12/02 03:21:04;;;;;;;49.15;22.13;;;-2.00;79.20;;;;;;5005725;28;20045;-86
2023/12/02 03:23:49;;;;;;;48.47;22.67;;;-2.00;79.20;;;;;;5005652;28;20065;-86
2023/12/02 03:26:36;;;;;;;53.75;22.95;;;-2.00;79.30;;;;;;5012534;28;20521;-87
2023/12/02 03:29:20;;;;;;;52.80;24.73;;;-2.00;79.20;;;;;;5008270;28;20052;-85
2023/12/02 03:32:05;;;;;;;52.28;23.10;;;-2.00;79.30;;;;;;4989244;28;20493;-87
2023/12/02 03:34:49;;;;;;;56.95;22.30;;;-2.10;79.30;;;;;;5011601;28;20041;-86
2023/12/02 03:37:35;;;;;;;51.53;24.15;;;-2.00;79.50;;;;;;5011995;28;20065;-86
2023/12/02 03:40:19;;;;;;;56.67;24.40;;;-2.10;79.30;;;;;;5012311;28;20389;-86
2023/12/02 03:43:03;;;;;;;50.38;23.45;;;-2.00;79.30;;;;;;5011758;28;20451;-86
2023/12/02 03:45:47;;;;;;;53.63;24.00;;;-2.10;79.20;;;;;;5011464;28;20060;-86
2023/12/02 03:48:32;;;;;;;51.58;21.80;;;-2.10;79.20;;;;;;4998671;28;20048;-85
2023/12/02 03:51:16;;;;;;;48.08;22.05;;;-2.10;79.20;;;;;;5011760;28;20037;-86
2023/12/02 03:54:00;;;;;;;47.80;21.45;;;-2.10;79.30;;;;;;5011365;28;20041;-86
2023/12/02 03:56:44;;;;;;;49.47;22.20;;;-2.10;79.20;;;;;;5011372;28;20487;-86
2023/12/02 03:59:29;;;;;;;48.78;21.88;;;-2.10;79.10;;;;;;5012487;28;20073;-86
2023/12/02 04:02:13;;;;;;;45.40;21.15;;;-2.10;79.10;;;;;;5011768;28;20076;-85
2023/12/02 04:04:57;;;;;;;47.90;21.58;;;-2.10;79.30;;;;;;5010052;28;20116;-86
2023/12/02 04:07:42;;;;;;;44.05;20.38;;;-2.10;79.20;;;;;;5011276;28;20064;-83
2023/12/02 04:10:26;;;;;;;48.47;22.08;;;-2.10;79.30;;;;;;5010404;28;20045;-86
2023/12/02 04:13:10;;;;;;;42.83;20.67;;;-2.10;79.30;;;;;;5011541;28;20048;-86
2023/12/02 04:15:55;;;;;;;48.28;22.25;;;-2.10;79.20;;;;;;5006797;28;20068;-86
2023/12/02 04:18:39;;;;;;;47.40;21.40;;;-2.10;79.20;;;;;;5009959;28;20041;-86
2023/12/02 04:21:26;;;;;;;42.20;21.48;;;-2.10;79.30;;;;;;4992061;28;20073;-86
2023/12/02 04:24:11;;;;;;;48.63;21.70;;;-2.00;79.40;;;;;;5009731;28;20505;-85
2023/12/02 04:26:55;;;;;;;50.80;21.25;;;-2.00;79.40;;;;;;5000287;28;20045;-86
2023/12/02 04:29:41;;;;;;;45.13;21.02;;;-2.10;79.20;;;;;;5000088;28;20084;-86
2023/12/02 04:32:25;;;;;;;41.83;20.05;;;-2.00;79.20;;;;;;5011509;28;20037;-87
2023/12/02 04:35:10;;;;;;;39.50;19.10;;;-2.00;79.10;;;;;;5015608;28;20045;-86
2023/12/02 04:37:54;;;;;;;49.03;21.13;;;-2.10;79.10;;;;;;5013721;28;20117;-86
2023/12/02 04:40:38;;;;;;;45.15;20.15;;;-2.10;79.10;;;;;;5014759;28;20045;-86
2023/12/02 04:43:23;;;;;;;44.50;19.63;;;-2.10;79.20;;;;;;5000808;28;20045;-86
2023/12/02 04:46:07;;;;;;;39.17;18.50;;;-2.10;79.00;;;;;;5013477;28;20416;-86
2023/12/02 04:48:51;;;;;;;44.70;20.95;;;-2.10;79.10;;;;;;5015203;28;20045;-86
2023/12/02 04:51:36;;;;;;;38.33;18.67;;;-2.10;79.00;;;;;;5015154;28;20083;-87
2023/12/02 04:54:20;;;;;;;39.90;19.05;;;-2.10;79.00;;;;;;5015413;28;20041;-85
2023/12/02 04:57:04;;;;;;;40.88;20.13;;;-2.10;79.00;;;;;;5013533;28;20044;-85
2023/12/02 04:59:48;;;;;;;40.63;19.75;;;-2.20;79.00;;;;;;5014583;28;20084;-83
2023/12/02 05:02:32;;;;;;;46.30;19.50;;;-2.20;78.90;;;;;;5015288;28;20069;-85
2023/12/02 05:05:16;;;;;;;46.38;20.10;;;-2.20;78.90;;;;;;5015185;28;20037;-86
2023/12/02 05:08:01;;;;;;;40.38;19.38;;;-2.20;78.90;;;;;;5013710;28;20053;-87
2023/12/02 05:10:45;;;;;;;44.65;20.23;;;-2.20;78.90;;;;;;5015065;28;20045;-86
2023/12/02 05:13:29;;;;;;;51.78;20.77;;;-2.20;78.90;;;;;;5014555;28;20500;-85
2023/12/02 05:16:14;;;;;;;43.13;20.63;;;-2.20;78.90;;;;;;5014737;28;20125;-87
2023/12/02 05:18:58;;;;;;;41.53;20.58;;;-2.20;78.90;;;;;;5014334;28;20092;-86
2023/12/02 05:21:42;;;;;;;43.38;20.20;;;-2.20;78.80;;;;;;5001923;28;20121;-86
2023/12/02 05:24:26;;;;;;;44.53;19.15;;;-2.30;78.90;;;;;;5002056;28;20108;-86
2023/12/02 05:27:11;;;;;;;45.08;21.45;;;-2.30;79.00;;;;;;5013186;28;20041;-86
2023/12/02 05:29:55;;;;;;;44.63;21.40;;;-2.30;79.00;;;;;;5013894;28;20156;-86
2023/12/02 05:32:39;;;;;;;44.00;20.65;;;-2.30;79.00;;;;;;5014987;28;20037;-86
2023/12/02 05:35:23;;;;;;;46.83;19.95;;;-2.30;79.00;;;;;;5014709;28;20064;-86
2023/12/02 05:38:07;;;;;;;45.00;20.25;;;-2.30;79.00;;;;;;5013961;28;20477;-86
2023/12/02 05:40:51;;;;;;;47.83;21.08;;;-2.30;78.90;;;;;;5014644;28;20145;-86
2023/12/02 05:43:35;;;;;;;44.40;20.58;;;-2.30;78.90;;;;;;5013190;28;20156;-86
2023/12/02 05:46:19;;;;;;;44.80;20.73;;;-2.30;78.90;;;;;;5014528;28;20084;-86
2023/12/02 05:49:03;;;;;;;46.08;21.83;;;-2.30;79.00;;;;;;5014134;28;20049;-86
2023/12/02 05:51:47;;;;;;;45.88;21.27;;;-2.40;78.90;;;;;;5002731;28;20448;-86
2023/12/02 05:54:31;;;;;;;42.28;20.00;;;-2.40;79.00;;;;;;5014662;28;20053;-86
2023/12/02 05:57:15;;;;;;;45.38;20.55;;;-2.40;78.90;;;;;;5013727;28;20049;-86
2023/12/02 05:59:59;;;;;;;55.90;20.83;;;-2.40;79.00;;;;;;5006281;28;20088;-86
2023/12/02 06:02:43;;;;;;;48.33;22.02;;;-2.40;79.00;;;;;;4993249;28;20096;-85
2023/12/02 06:05:28;;;;;;;51.00;21.73;;;-2.40;79.00;;;;;;4994343;28;20434;-86
2023/12/02 06:08:14;;;;;;;44.63;20.70;;;-2.40;78.90;;;;;;4993829;28;20417;-86
2023/12/02 06:10:58;;;;;;;47.25;22.65;;;-2.40;79.00;;;;;;4993472;28;20048;-85
2023/12/02 06:13:42;;;;;;;45.80;21.20;;;-2.40;79.00;;;;;;4993939;28;20209;-85
2023/12/02 06:16:27;;;;;;;46.10;20.40;;;-2.50;78.90;;;;;;5000579;28;20115;-86
2023/12/02 06:19:11;;;;;;;48.75;22.67;;;-2.50;79.00;;;;;;4993421;28;20457;-85
2023/12/02 06:21:56;;;;;;;52.28;22.02;;;-2.50;79.00;;;;;;4993960;28;20069;-86
2023/12/02 06:24:41;;;;;;;48.72;22.90;;;-2.50;79.00;;;;;;5001275;28;20096;-84
2023/12/02 06:27:24;;;;;;;49.72;21.42;;;-2.50;79.00;;;;;;5009282;28;20509;-85
2023/12/02 06:30:09;;;;;;;54.72;24.10;;;-2.50;79.10;;;;;;4992429;28;20402;-87
2023/12/02 06:32:54;;;;;;;52.65;22.95;;;-2.50;79.10;;;;;;4993911;28;20073;-86
2023/12/02 06:35:38;;;;;;;51.97;20.70;;;-2.50;79.10;;;;;;4993485;28;20076;-85
2023/12/02 06:38:22;;;;;;;51.45;21.02;;;-2.50;79.20;;;;;;4993202;28;20089;-85
2023/12/02 06:41:07;;;;;;;48.60;22.35;;;-2.50;79.10;;;;;;4998582;28;20544;-84
2023/12/02 06:43:51;;;;;;;47.83;21.23;;;-2.50;79.10;;;;;;4993598;28;20113;-86
2023/12/02 06:46:36;;;;;;;51.97;22.08;;;-2.50;79.10;;;;;;4993040;28;20058;-86
2023/12/02 06:49:20;;;;;;;50.53;21.75;;;-2.50;79.10;;;;;;4992869;28;20057;-85
2023/12/02 06:52:04;;;;;;;49.42;22.13;;;-2.50;79.20;;;;;;4993257;28;20041;-83
2023/12/02 06:54:48;;;;;;;54.30;22.75;;;-2.50;79.20;;;;;;4993413;28;20044;-84
2023/12/02 06:57:32;;;;;;;46.45;22.35;;;-2.50;79.20;;;;;;4993006;28;20453;-84
2023/12/02 07:00:16;;;;;;;55.22;24.10;;;-2.50;79.30;;;;;;4993028;28;20040;-85
2023/12/02 07:03:00;;;;;;;58.25;23.45;;;-2.50;79.30;;;;;;4992204;28;20446;-86
2023/12/02 07:05:45;;;;;;;45.17;21.27;;;-2.50;79.30;;;;;;4993032;28;20103;-85
2023/12/02 07:08:29;;;;;;;56.35;22.75;;;-2.50;79.40;;;;;;4993001;28;20523;-84
2023/12/02 07:11:14;;;;;;;51.88;22.35;;;-2.50;79.30;;;;;;4992428;28;20065;-85
2023/12/02 07:13:58;;;;;;;52.45;23.48;;;-2.50;79.80;;;;;;4992057;28;20081;-82
2023/12/02 07:16:42;;;;;;;54.70;22.73;;;-2.50;79.60;;;;;;4991887;28;20510;-83
2023/12/02 07:19:27;;;;;;;56.72;24.83;;;-2.40;79.70;;;;;;4992205;28;20127;-84
2023/12/02 07:22:11;;;;;;;61.10;23.13;;;-2.40;79.60;;;;;;4993949;28;20173;-85
2023/12/02 07:24:55;;;;;;;57.15;22.83;;;-2.40;79.60;;;;;;4999554;28;20414;-90
2023/12/02 07:27:39;;;;;;;56.40;23.77;;;-2.40;79.80;;;;;;5000253;28;20045;-84
2023/12/02 07:30:24;;;;;;;52.42;22.75;;;-2.40;79.60;;;;;;4992164;28;20130;-83
2023/12/02 07:33:08;;;;;;;64.45;27.40;;;-2.40;79.50;;;;;;5000030;28;20548;-87
2023/12/02 07:35:53;;;;;;;60.50;24.73;;;-2.40;79.50;;;;;;4993819;28;20097;-83
2023/12/02 07:38:38;;;;;;;55.25;23.73;;;-2.40;79.70;;;;;;4991940;28;20045;-85
2023/12/02 07:41:23;;;;;;;57.95;22.40;;;-2.40;79.60;;;;;;4991086;28;20123;-84
2023/12/02 07:44:07;;;;;;;57.75;23.10;;;-2.40;79.50;;;;;;4991433;28;20046;-85
2023/12/02 07:46:52;;;;;;;59.90;23.98;;;-2.40;79.60;;;;;;4992678;28;20098;-84
2023/12/02 07:49:36;;;;;;;60.75;23.50;;;-2.40;79.60;;;;;;4992147;28;20045;-85
2023/12/02 07:52:20;;;;;;;52.08;21.52;;;-2.30;79.60;;;;;;4991948;28;20101;-79
2023/12/02 07:55:05;;;;;;;60.63;24.30;;;-2.30;79.60;;;;;;4992667;28;20116;-84
2023/12/02 07:57:49;;;;;;;57.22;23.05;;;-2.30;79.60;;;;;;4993742;28;20557;-86
2023/12/02 08:00:33;;;;;;;59.03;23.77;;;-2.30;79.60;;;;;;4992161;28;20085;-85
2023/12/02 08:03:17;;;;;;;56.13;24.42;;;-2.30;79.70;;;;;;4991456;28;20049;-84
2023/12/02 08:06:01;;;;;;;62.08;26.00;;;-2.20;79.60;;;;;;4991671;28;20176;-83
2023/12/02 08:08:47;;;;;;;54.72;22.98;;;-2.20;79.70;;;;;;4990782;28;20552;-83
2023/12/02 08:11:31;;;;;;;57.65;24.55;;;-2.20;79.70;;;;;;4991480;28;20041;-83
2023/12/02 08:14:15;;;;;;;55.67;23.55;;;-2.20;79.70;;;;;;4991569;28;20057;-83
2023/12/02 08:17:00;;;;;;;54.28;22.25;;;-2.20;79.60;;;;;;4991029;28;20173;-83
2023/12/02 08:19:44;;;;;;;59.42;24.10;;;-2.20;79.70;;;;;;4991889;28;20149;-83
2023/12/02 08:22:29;;;;;;;60.90;25.38;;;-2.10;79.70;;;;;;4996017;28;20040;-83
2023/12/02 08:25:13;;;;;;;62.63;24.10;;;-2.10;79.70;;;;;;5011660;28;20603;-83
2023/12/02 08:27:58;;;;;;;58.95;23.35;;;-2.10;79.80;;;;;;5010619;28;20107;-83
2023/12/02 08:30:42;;;;;;;56.38;24.05;;;-2.10;79.70;;;;;;5011455;28;20044;-83
2023/12/02 08:33:26;;;;;;;59.30;24.17;;;-2.10;79.70;;;;;;5011180;28;20402;-83
2023/12/02 08:36:11;;;;;;;54.88;22.92;;;-2.10;79.80;;;;;;5011500;28;20045;-83
2023/12/02 08:38:55;;;;;;;64.85;24.83;;;-2.10;79.80;;;;;;5011262;28;20168;-83
2023/12/02 08:41:40;;;;;;;63.70;24.25;;;-2.10;79.80;;;;;;5010975;28;20552;-83
2023/12/02 08:44:24;;;;;;;62.20;25.02;;;-2.00;79.80;;;;;;5010743;28;20036;-83
2023/12/02 08:47:08;;;;;;;56.88;23.25;;;-2.00;79.70;;;;;;5011281;28;20045;-83
2023/12/02 08:49:53;;;;;;;60.80;24.23;;;-2.00;79.60;;;;;;5010264;28;20117;-83
2023/12/02 08:52:37;;;;;;;55.67;24.02;;;-2.00;79.70;;;;;;5009744;28;20036;-83
2023/12/02 08:55:22;;;;;;;62.83;24.10;;;-1.90;79.60;;;;;;5009964;28;20402;-83
2023/12/02 08:58:06;;;;;;;55.75;24.17;;;-1.90;79.60;;;;;;5010124;28;20048;-83
2023/12/02 09:00:51;;;;;;;57.90;24.30;;;-1.80;79.60;;;;;;5011404;28;20084;-83
2023/12/02 09:03:35;;;;;;;64.72;25.80;;;-1.80;79.60;;;;;;5010772;28;20818;-83
2023/12/02 09:06:19;;;;;;;52.33;22.85;;;-1.80;79.60;;;;;;5010733;28;20124;-83
2023/12/02 09:09:03;;;;;;;58.40;23.83;;;-1.70;79.70;;;;;;5011203;28;20120;-83
2023/12/02 09:11:48;;;;;;;53.15;23.33;;;-1.70;79.60;;;;;;5011030;28;20037;-83
2023/12/02 09:14:32;;;;;;;56.90;22.98;;;-1.70;79.60;;;;;;5010551;28;20049;-83
2023/12/02 09:17:54;;;;;;;55.63;23.45;;;-1.60;79.60;;;;;;5010951;28;20412;-83
2023/12/02 09:20:45;;;;;;;55.75;23.85;;;-1.50;79.60;;;;;;5008778;28;20048;-83
2023/12/02 09:23:31;;;;;;;56.75;22.90;;;-1.50;79.60;;;;;;5007525;28;20041;-83
2023/12/02 09:26:27;;;;;;;55.88;22.63;;;-1.50;79.50;;;;;;5014650;28;20095;-83
2023/12/02 09:29:11;;;;;;;54.85;23.73;;;-1.50;79.50;;;;;;5014466;28;20072;-83
2023/12/02 09:31:55;;;;;;;56.28;24.35;;;-1.40;79.60;;;;;;5014545;28;20080;-83
2023/12/02 09:34:40;;;;;;;54.88;23.85;;;-1.40;79.50;;;;;;5013874;28;20088;-84
2023/12/02 09:37:51;;;;;;;51.80;23.15;;;-1.30;79.50;;;;;;5013862;28;20048;-83
2023/12/02 09:40:49;;;;;;;55.00;23.65;;;-1.30;79.50;;;;;;5013914;28;20445;-84
2023/12/02 09:43:37;;;;;;;53.25;22.48;;;-1.20;79.50;;;;;;5013937;28;20125;-83
2023/12/02 09:46:24;;;;;;;53.83;23.77;;;-1.20;79.60;;;;;;5013726;28;20076;-83
2023/12/02 09:49:40;;;;;;;53.42;22.92;;;-1.10;79.50;;;;;;5013935;28;20045;-83
2023/12/02 09:52:27;;;;;;;55.72;22.63;;;-1.00;79.50;;;;;;5013949;28;20040;-84
2023/12/02 09:55:27;;;;;;;49.22;20.33;;;-0.90;79.50;;;;;;5014171;28;20541;-84
2023/12/02 09:58:32;;;;;;;51.08;22.45;;;;;;;;;;5013852;28;20041;-83
2023/12/02 10:01:18;;;;;;;52.10;23.23;;;;;;;;;;5014276;28;20164;-84
2023/12/02 10:04:12;;;;;;;50.72;22.27;;;;;;;;;;5013908;28;20058;-84
2023/12/02 10:07:02;;;;;;;54.33;22.90;;;;;;;;;;5013909;28;20080;-84
2023/12/02 10:10:03;;;;;;;49.47;21.45;;;;;;;;;;5013087;28;20104;-84
2023/12/02 10:12:51;;;;;;;44.45;20.80;;;;;;;;;;5013336;28;20125;-84
2023/12/02 10:15:36;;;;;;;51.67;22.83;;;;;;;;;;5013065;28;20045;-84
2023/12/02 10:18:22;;;;;;;48.80;22.98;;;;;;;;;;5012544;28;20099;-84
2023/12/02 10:21:11;;;;;;;49.25;21.63;;;;;;;;;;5006144;28;20045;-84
2023/12/02 10:23:58;;;;;;;47.20;21.70;;;;;;;;;;5010022;28;20036;-84
2023/12/02 10:26:46;;;;;;;48.13;20.63;;;;;;;;;;5012999;28;20081;-84
2023/12/02 10:29:43;;;;;;;44.40;21.15;;;;;;;;;;5013003;28;20100;-84
2023/12/02 10:32:39;;;;;;;45.35;21.75;;;;;;;;;;5013391;28;20037;-84
2023/12/02 10:35:32;;;;;;;46.63;21.00;;;;;;;;;;5013475;28;20433;-84
2023/12/02 10:38:25;;;;;;;44.65;22.00;;;;;;;;;;5012335;28;20081;-84
2023/12/02 10:41:13;;;;;;;42.72;19.85;;;;;;;;;;5013113;28;20493;-84
2023/12/02 10:44:01;;;;;;;45.53;20.60;;;;;;;;;;5013858;28;20044;-84
2023/12/02 10:46:46;;;;;;;46.83;20.67;;;;;;;;;;5012468;28;20057;-84
2023/12/02 10:49:31;;;;;;;41.83;18.98;;;;;;;;;;5012804;28;20390;-84
2023/12/02 10:52:17;;;;;;;40.88;19.73;;;;;;;;;;5012110;28;20504;-84
2023/12/02 10:55:03;;;;;;;39.50;19.73;;;;;;;;;;5012928;28;20137;-84
2023/12/02 10:57:48;;;;;;;42.95;18.83;;;;;;;;;;5011787;28;20409;-84
2023/12/02 11:00:37;;;;;;;33.53;17.63;;;;;;;;;;5012799;28;20049;-84
2023/12/02 11:03:28;;;;;;;35.42;18.58;;;;;;;;;;5013054;28;20049;-84
2023/12/02 11:06:21;;;;;;;37.50;19.65;;;;;;;;;;5011613;28;20169;-84
2023/12/02 11:09:10;;;;;;;37.90;19.35;;;;;;;;;;5011798;28;20064;-84
2023/12/02 11:12:07;;;;;;;39.70;18.20;;;;;;;;;;5012064;28;20057;-84
2023/12/02 11:14:54;;;;;;;36.40;17.85;;;;;;;;;;5012038;28;20168;-84
2023/12/02 11:17:47;;;;;;;38.53;17.90;;;;;;;;;;5011192;28;20398;-84
2023/12/02 11:20:53;;;;;;;32.13;17.50;;;;;;;;;;5009988;28;20084;-84
2023/12/02 11:23:43;;;;;;;33.30;16.70;;;;;;;;;;5006731;28;20080;-84
2023/12/02 11:26:34;;;;;;;36.65;18.40;;;;;;;;;;5012523;28;20052;-84
2023/12/02 11:29:20;;;;;;;44.47;17.48;;;;;;;;;;5013035;28;20057;-84
2023/12/02 11:32:08;;;;;;;33.97;17.83;;;;;;;;;;5012405;28;20104;-84
2023/12/02 11:34:55;;;;;;;31.23;17.52;;;;;;;;;;5000786;28;20037;-84
2023/12/02 11:37:58;;;;;;;34.30;15.95;;;-0.80;79.50;;;;;;5011609;28;20044;-84
2023/12/02 11:41:01;;;;;;;30.42;14.75;;;1.10;77.80;;;;;;5010623;28;20096;-84
2023/12/02 11:43:48;;;;;;;29.55;15.70;;;1.20;77.80;;;;;;5011315;28;20041;-84
2023/12/02 11:46:56;;;;;;;32.28;16.58;;;1.20;77.80;;;;;;5012280;28;20064;-84
2023/12/02 11:49:45;;;;;;;27.92;16.00;;;1.20;77.80;;;;;;5012014;28;20041;-84
2023/12/02 11:53:01;;;;;;;32.60;14.65;;;1.30;77.80;;;;;;5012132;28;20048;-84
2023/12/02 11:55:54;;;;;;;27.98;14.20;;;1.30;77.70;;;;;;5011494;28;20056;-84
2023/12/02 11:58:54;;;;;;;20.42;11.45;;;1.30;77.50;;;;;;5011787;28;20040;-85
2023/12/02 12:01:38;;;;;;;29.92;15.48;;;1.30;76.90;;;;;;5010900;28;20060;-84
2023/12/02 12:04:35;;;;;;;31.00;14.32;;;;;;;;;;4998627;28;20045;-85
2023/12/02 12:07:30;;;;;;;24.95;13.90;;;;;;;;;;5002014;28;20048;-85
2023/12/02 12:10:17;;;;;;;25.75;14.38;;;;;;;;;;5011598;28;20060;-85
2023/12/02 12:13:02;;;;;;;27.73;14.57;;;;;;;;;;5010007;28;20139;-85
2023/12/02 12:15:47;;;;;;;26.35;14.95;;;;;;;;;;5010345;28;20504;-85
2023/12/02 12:18:31;;;;;;;30.52;14.85;;;;;;;;;;5011506;28;20052;-85
2023/12/02 12:21:16;;;;;;;27.42;15.23;;;;;;;;;;5001955;28;20095;-85
2023/12/02 12:24:01;;;;;;;30.75;15.98;;;;;;;;;;5008345;28;20134;-85
2023/12/02 12:26:45;;;;;;;26.75;14.38;;;;;;;;;;5010857;28;20117;-85
2023/12/02 12:29:30;;;;;;;27.63;14.88;;;;;;;;;;5010742;28;20117;-85
2023/12/02 12:32:14;;;;;;;30.80;15.70;;;;;;;;;;5011407;28;20041;-85
2023/12/02 12:34:59;;;;;;;28.02;15.18;;;;;;;;;;5011186;28;20033;-85
2023/12/02 12:37:44;;;;;;;30.63;15.98;;;;;;;;;;5010696;28;20045;-85
2023/12/02 12:40:32;;;;;;;28.70;14.85;;;;;;;;;;5010684;28;20096;-85
2023/12/02 12:43:18;;;;;;;31.35;14.52;;;;;;;;;;5010618;28;20088;-85
2023/12/02 12:46:03;;;;;;;28.05;12.93;;;;;;;;;;5010832;28;20406;-85
2023/12/02 12:48:51;;;;;;;26.25;13.90;;;;;;;;;;5010012;28;20049;-85
2023/12/02 12:51:36;;;;;;;23.92;13.07;;;;;;;;;;5011575;28;20041;-85
2023/12/02 12:54:24;;;;;;;25.15;12.77;;;;;;;;;;5012217;28;20049;-85
2023/12/02 12:57:12;;;;;;;23.65;12.95;;;;;;;;;;5014762;28;20049;-85
2023/12/02 13:00:00;;;;;;;25.98;12.70;;;;;;;;;;5013606;28;20145;-85
2023/12/02 13:02:51;;;;;;;26.10;13.10;;;;;;;;;;5013985;28;20040;-85
2023/12/02 13:05:40;;;;;;;23.77;12.52;;;;;;;;;;5015159;28;20040;-85
2023/12/02 13:08:25;;;;;;;21.35;11.68;;;;;;;;;;5013840;28;20088;-85
2023/12/02 13:11:10;;;;;;;22.23;12.35;;;;;;;;;;5014540;28;20069;-85
2023/12/02 13:14:07;;;;;;;23.52;12.45;;;;;;;;;;5014470;28;20040;-85
2023/12/02 13:16:52;;;;;;;22.33;12.18;;;;;;;;;;5014193;28;20112;-85
2023/12/02 13:19:39;;;;;;;23.88;12.63;;;;;;;;;;5013994;28;20119;-85
2023/12/02 13:22:24;;;;;;;22.00;11.02;;;;;;;;;;5000075;28;20040;-85
2023/12/02 13:25:16;;;;;;;20.65;10.85;;;;;;;;;;5014338;28;20091;-85
2023/12/02 13:28:15;;;;;;;23.90;11.32;;;;;;;;;;5014211;28;20086;-85
2023/12/02 13:31:01;;;;;;;21.83;11.23;;;;;;;;;;5014026;28;20084;-86
2023/12/02 13:33:46;;;;;;;23.35;11.80;;;;;;;;;;5014637;28;20084;-85
2023/12/02 13:36:36;;;;;;;19.17;10.27;;;;;;;;;;5014740;28;20049;-85
2023/12/02 13:39:25;;;;;;;24.25;10.77;;;;;;;;;;5013557;28;20045;-86
2023/12/02 13:42:12;;;;;;;17.33;9.70;;;;;;;;;;5013187;28;20386;-85
2023/12/02 13:45:04;;;;;;;19.50;10.63;;;;;;;;;;5013661;28;20041;-85
2023/12/02 13:48:07;;;;;;;19.08;9.43;;;;;;;;;;5014372;28;20065;-85
2023/12/02 13:50:59;;;;;;;22.92;10.98;;;;;;;;;;5013984;28;20036;-85
2023/12/02 13:53:45;;;;;;;18.30;9.18;;;;;;;;;;5014342;28;20505;-85
2023/12/02 13:56:37;;;;;;;18.55;9.02;;;;;;;;;;5014012;28;20044;-85
2023/12/02 13:59:28;;;;;;;18.73;9.52;;;;;;;;;;5014072;28;20049;-85
2023/12/02 14:02:32;;;;;;;19.45;9.35;;;;;;;;;;5013620;28;20064;-85
2023/12/02 14:05:35;;;;;;;15.65;8.95;;;;;;;;;;5012077;28;20108;-85
2023/12/02 14:08:21;;;;;;;19.30;9.50;;;;;;;;;;5013721;28;20102;-85
2023/12/02 14:11:07;;;;;;;21.77;9.55;;;;;;;;;;4999764;28;20509;-86
2023/12/02 14:14:03;;;;;;;19.98;10.38;;;;;;;;;;5000893;28;20092;-85
2023/12/02 14:17:07;;;;;;;20.92;9.73;;;;;;;;;;5013681;28;20452;-85
2023/12/02 14:19:55;;;;;;;19.23;10.40;;;;;;;;;;5012612;28;20041;-85
2023/12/02 14:22:58;;;;;;;21.25;10.45;;;;;;;;;;4999951;28;20087;-85
2023/12/02 14:25:46;;;;;;;17.35;8.77;;;;;;;;;;5013311;28;20578;-86
2023/12/02 14:28:40;;;;;;;24.17;11.25;;;;;;;;;;5013738;28;20401;-86
2023/12/02 14:31:43;;;;;;;27.48;11.38;;;;;;;;;;5013523;28;20040;-86
2023/12/02 14:34:57;;;;;;;21.38;12.07;;;;;;;;;;5013507;28;20029;-86
2023/12/02 14:37:42;;;;;;;;;;;;;;;;;;5013587;28;20064;-86
2023/12/02 14:40:51;;;;;;;24.98;11.32;;;;;;;;;;5013446;28;19928;-86